sensor_id;sensor_type;location;lat;lon;timestamp;P1;durP1;ratioP1;P2;durP2;ratioP2
34497;SDS011;20744;50.938;7.286;2022-12-20T00:00:49;9.50;;;4.75;;
34497;SDS011;20744;50.938;7.286;2022-12-20T00:03:17;10.77;;;4.53;;
34497;SDS011;20744;50.938;7.286;2022-12-20T00:05:46;6.72;;;4.80;;
34497;SDS011;20744;50.938;7.286;2022-12-20T00:08:14;7.28;;;3.97;;
34497;SDS011;20744;50.938;7.286;2022-12-20T00:10:42;6.28;;;4.03;;
34497;SDS011;20744;50.938;7.286;2022-12-20T00:13:09;7.90;;;4.13;;
34497;SDS011;20744;50.938;7.286;2022-12-20T00:15:37;7.70;;;4.32;;
34497;SDS011;20744;50.938;7.286;2022-12-20T00:18:04;7.55;;;4.53;;
34497;SDS011;20744;50.938;7.286;2022-12-20T00:20:31;7.82;;;4.28;;
34497;SDS011;20744;50.938;7.286;2022-12-20T00:23:00;9.20;;;4.65;;
34497;SDS011;20744;50.938;7.286;2022-12-20T00:25:28;6.70;;;4.00;;
34497;SDS011;20744;50.938;7.286;2022-12-20T00:27:55;10.43;;;4.55;;
34497;SDS011;20744;50.938;7.286;2022-12-20T00:30:22;10.63;;;4.53;;
34497;SDS011;20744;50.938;7.286;2022-12-20T00:32:49;7.10;;;4.32;;
34497;SDS011;20744;50.938;7.286;2022-12-20T00:35:17;9.45;;;4.35;;
34497;SDS011;20744;50.938;7.286;2022-12-20T00:37:44;8.10;;;4.85;;
34497;SDS011;20744;50.938;7.286;2022-12-20T00:40:13;9.82;;;4.60;;
34497;SDS011;20744;50.938;7.286;2022-12-20T00:42:40;7.25;;;4.65;;
34497;SDS011;20744;50.938;7.286;2022-12-20T00:45:08;9.93;;;5.22;;
34497;SDS011;20744;50.938;7.286;2022-12-20T00:47:35;11.98;;;5.43;;
34497;SDS011;20744;50.938;7.286;2022-12-20T00:50:02;10.52;;;5.57;;
34497;SDS011;20744;50.938;7.286;2022-12-20T00:52:30;10.43;;;5.45;;
34497;SDS011;20744;50.938;7.286;2022-12-20T00:54:57;9.20;;;5.65;;
34497;SDS011;20744;50.938;7.286;2022-12-20T00:57:26;10.32;;;5.85;;
34497;SDS011;20744;50.938;7.286;2022-12-20T00:59:53;8.75;;;5.82;;
34497;SDS011;20744;50.938;7.286;2022-12-20T01:02:20;11.57;;;6.25;;
34497;SDS011;20744;50.938;7.286;2022-12-20T01:04:47;9.88;;;6.15;;
34497;SDS011;20744;50.938;7.286;2022-12-20T01:07:15;11.02;;;6.53;;
34497;SDS011;20744;50.938;7.286;2022-12-20T01:09:43;12.82;;;6.95;;
34497;SDS011;20744;50.938;7.286;2022-12-20T01:12:10;12.65;;;7.10;;
34497;SDS011;20744;50.938;7.286;2022-12-20T01:14:39;13.63;;;7.40;;
34497;SDS011;20744;50.938;7.286;2022-12-20T01:17:06;11.85;;;7.40;;
34497;SDS011;20744;50.938;7.286;2022-12-20T01:19:34;11.43;;;7.07;;
34497;SDS011;20744;50.938;7.286;2022-12-20T01:22:01;13.85;;;7.47;;
34497;SDS011;20744;50.938;7.286;2022-12-20T01:24:28;10.75;;;6.57;;
34497;SDS011;20744;50.938;7.286;2022-12-20T01:26:55;15.57;;;7.80;;
34497;SDS011;20744;50.938;7.286;2022-12-20T01:29:23;13.70;;;7.97;;
34497;SDS011;20744;50.938;7.286;2022-12-20T01:31:51;14.82;;;7.75;;
34497;SDS011;20744;50.938;7.286;2022-12-20T01:34:18;11.57;;;7.55;;
34497;SDS011;20744;50.938;7.286;2022-12-20T01:36:46;14.40;;;8.30;;
34497;SDS011;20744;50.938;7.286;2022-12-20T01:39:14;16.35;;;7.45;;
34497;SDS011;20744;50.938;7.286;2022-12-20T01:41:43;13.77;;;7.90;;
34497;SDS011;20744;50.938;7.286;2022-12-20T01:46:58;17.70;;;8.88;;
34497;SDS011;20744;50.938;7.286;2022-12-20T01:49:26;12.85;;;8.32;;
34497;SDS011;20744;50.938;7.286;2022-12-20T01:51:56;12.70;;;8.07;;
34497;SDS011;20744;50.938;7.286;2022-12-20T01:54:26;13.95;;;8.10;;
34497;SDS011;20744;50.938;7.286;2022-12-20T01:56:56;14.15;;;8.38;;
34497;SDS011;20744;50.938;7.286;2022-12-20T01:59:25;11.32;;;7.35;;
34497;SDS011;20744;50.938;7.286;2022-12-20T02:01:53;18.88;;;8.13;;
34497;SDS011;20744;50.938;7.286;2022-12-20T02:04:22;12.32;;;7.90;;
34497;SDS011;20744;50.938;7.286;2022-12-20T02:06:49;12.82;;;7.53;;
34497;SDS011;20744;50.938;7.286;2022-12-20T02:09:16;9.75;;;7.32;;
34497;SDS011;20744;50.938;7.286;2022-12-20T02:11:56;10.48;;;7.20;;
34497;SDS011;20744;50.938;7.286;2022-12-20T02:14:31;10.93;;;7.55;;
34497;SDS011;20744;50.938;7.286;2022-12-20T02:17:01;14.95;;;7.32;;
34497;SDS011;20744;50.938;7.286;2022-12-20T02:19:39;15.57;;;7.47;;
34497;SDS011;20744;50.938;7.286;2022-12-20T02:22:15;9.23;;;6.70;;
34497;SDS011;20744;50.938;7.286;2022-12-20T02:27:51;10.57;;;6.57;;
34497;SDS011;20744;50.938;7.286;2022-12-20T02:30:21;12.68;;;6.68;;
34497;SDS011;20744;50.938;7.286;2022-12-20T02:32:51;15.23;;;7.85;;
34497;SDS011;20744;50.938;7.286;2022-12-20T02:35:21;14.35;;;7.07;;
34497;SDS011;20744;50.938;7.286;2022-12-20T02:37:49;10.52;;;6.72;;
34497;SDS011;20744;50.938;7.286;2022-12-20T02:40:18;12.02;;;7.07;;
34497;SDS011;20744;50.938;7.286;2022-12-20T02:42:47;17.08;;;8.05;;
34497;SDS011;20744;50.938;7.286;2022-12-20T02:45:14;15.75;;;7.20;;
34497;SDS011;20744;50.938;7.286;2022-12-20T02:47:44;16.70;;;7.20;;
34497;SDS011;20744;50.938;7.286;2022-12-20T02:50:13;14.38;;;6.95;;
34497;SDS011;20744;50.938;7.286;2022-12-20T02:52:41;10.88;;;6.82;;
34497;SDS011;20744;50.938;7.286;2022-12-20T02:55:09;13.60;;;6.90;;
34497;SDS011;20744;50.938;7.286;2022-12-20T02:57:37;14.80;;;7.72;;
34497;SDS011;20744;50.938;7.286;2022-12-20T03:00:07;14.93;;;7.75;;
34497;SDS011;20744;50.938;7.286;2022-12-20T03:02:36;11.63;;;6.57;;
34497;SDS011;20744;50.938;7.286;2022-12-20T03:05:19;14.68;;;7.03;;
34497;SDS011;20744;50.938;7.286;2022-12-20T03:07:47;13.15;;;6.95;;
34497;SDS011;20744;50.938;7.286;2022-12-20T03:10:14;14.88;;;7.05;;
34497;SDS011;20744;50.938;7.286;2022-12-20T03:12:42;10.45;;;6.18;;
34497;SDS011;20744;50.938;7.286;2022-12-20T03:15:09;12.75;;;7.10;;
34497;SDS011;20744;50.938;7.286;2022-12-20T03:17:36;12.23;;;6.25;;
34497;SDS011;20744;50.938;7.286;2022-12-20T03:20:04;19.75;;;7.82;;
34497;SDS011;20744;50.938;7.286;2022-12-20T03:22:33;12.07;;;7.35;;
34497;SDS011;20744;50.938;7.286;2022-12-20T03:25:00;11.90;;;6.82;;
34497;SDS011;20744;50.938;7.286;2022-12-20T03:27:28;13.57;;;7.32;;
34497;SDS011;20744;50.938;7.286;2022-12-20T03:29:55;9.60;;;6.60;;
34497;SDS011;20744;50.938;7.286;2022-12-20T03:32:22;11.48;;;6.35;;
34497;SDS011;20744;50.938;7.286;2022-12-20T03:34:49;14.07;;;7.20;;
34497;SDS011;20744;50.938;7.286;2022-12-20T03:37:17;11.25;;;6.78;;
34497;SDS011;20744;50.938;7.286;2022-12-20T03:39:45;12.77;;;7.13;;
34497;SDS011;20744;50.938;7.286;2022-12-20T03:42:12;13.55;;;7.18;;
34497;SDS011;20744;50.938;7.286;2022-12-20T03:44:39;12.10;;;7.90;;
34497;SDS011;20744;50.938;7.286;2022-12-20T03:47:07;15.10;;;8.43;;
34497;SDS011;20744;50.938;7.286;2022-12-20T03:49:34;13.60;;;8.02;;
34497;SDS011;20744;50.938;7.286;2022-12-20T03:52:01;11.93;;;7.25;;
34497;SDS011;20744;50.938;7.286;2022-12-20T03:54:29;14.27;;;7.68;;
34497;SDS011;20744;50.938;7.286;2022-12-20T03:56:57;12.05;;;7.65;;
34497;SDS011;20744;50.938;7.286;2022-12-20T03:59:24;12.18;;;7.65;;
34497;SDS011;20744;50.938;7.286;2022-12-20T04:01:52;15.15;;;8.02;;
34497;SDS011;20744;50.938;7.286;2022-12-20T04:04:19;13.10;;;7.75;;
34497;SDS011;20744;50.938;7.286;2022-12-20T04:06:46;15.90;;;8.02;;
34497;SDS011;20744;50.938;7.286;2022-12-20T04:09:14;12.38;;;7.80;;
34497;SDS011;20744;50.938;7.286;2022-12-20T04:11:41;11.75;;;7.40;;
34497;SDS011;20744;50.938;7.286;2022-12-20T04:14:10;19.02;;;8.05;;
34497;SDS011;20744;50.938;7.286;2022-12-20T04:16:37;11.93;;;7.53;;
34497;SDS011;20744;50.938;7.286;2022-12-20T04:19:04;15.05;;;7.65;;
34497;SDS011;20744;50.938;7.286;2022-12-20T04:21:32;12.13;;;7.68;;
34497;SDS011;20744;50.938;7.286;2022-12-20T04:24:01;12.48;;;7.72;;
34497;SDS011;20744;50.938;7.286;2022-12-20T04:26:28;11.30;;;7.13;;
34497;SDS011;20744;50.938;7.286;2022-12-20T04:28:56;10.43;;;7.18;;
34497;SDS011;20744;50.938;7.286;2022-12-20T04:31:24;11.02;;;6.70;;
34497;SDS011;20744;50.938;7.286;2022-12-20T04:33:51;12.90;;;7.15;;
34497;SDS011;20744;50.938;7.286;2022-12-20T04:36:19;12.30;;;6.70;;
34497;SDS011;20744;50.938;7.286;2022-12-20T04:38:46;11.98;;;6.75;;
34497;SDS011;20744;50.938;7.286;2022-12-20T04:41:13;13.27;;;7.22;;
34497;SDS011;20744;50.938;7.286;2022-12-20T04:43:47;13.60;;;7.22;;
34497;SDS011;20744;50.938;7.286;2022-12-20T04:46:15;13.30;;;6.90;;
34497;SDS011;20744;50.938;7.286;2022-12-20T04:48:43;12.20;;;7.18;;
34497;SDS011;20744;50.938;7.286;2022-12-20T04:51:11;13.05;;;7.38;;
34497;SDS011;20744;50.938;7.286;2022-12-20T04:53:38;10.85;;;7.15;;
34497;SDS011;20744;50.938;7.286;2022-12-20T04:56:17;14.10;;;7.40;;
34497;SDS011;20744;50.938;7.286;2022-12-20T04:58:46;12.00;;;7.43;;
34497;SDS011;20744;50.938;7.286;2022-12-20T05:01:13;12.60;;;7.20;;
34497;SDS011;20744;50.938;7.286;2022-12-20T05:03:41;11.65;;;6.93;;
34497;SDS011;20744;50.938;7.286;2022-12-20T05:06:09;13.38;;;7.72;;
34497;SDS011;20744;50.938;7.286;2022-12-20T05:08:37;15.20;;;7.65;;
34497;SDS011;20744;50.938;7.286;2022-12-20T05:11:04;16.05;;;7.78;;
34497;SDS011;20744;50.938;7.286;2022-12-20T05:13:32;12.63;;;7.60;;
34497;SDS011;20744;50.938;7.286;2022-12-20T05:15:59;13.40;;;7.40;;
34497;SDS011;20744;50.938;7.286;2022-12-20T05:18:27;16.20;;;7.97;;
34497;SDS011;20744;50.938;7.286;2022-12-20T05:20:56;16.23;;;7.97;;
34497;SDS011;20744;50.938;7.286;2022-12-20T05:23:42;12.95;;;7.75;;
34497;SDS011;20744;50.938;7.286;2022-12-20T05:26:28;13.48;;;8.30;;
34497;SDS011;20744;50.938;7.286;2022-12-20T05:28:56;14.73;;;8.05;;
34497;SDS011;20744;50.938;7.286;2022-12-20T05:31:23;15.90;;;7.05;;
34497;SDS011;20744;50.938;7.286;2022-12-20T05:33:50;15.05;;;7.60;;
34497;SDS011;20744;50.938;7.286;2022-12-20T05:36:18;12.82;;;7.50;;
34497;SDS011;20744;50.938;7.286;2022-12-20T05:38:46;13.20;;;7.35;;
34497;SDS011;20744;50.938;7.286;2022-12-20T05:41:14;12.27;;;8.02;;
34497;SDS011;20744;50.938;7.286;2022-12-20T05:43:41;12.40;;;6.95;;
34497;SDS011;20744;50.938;7.286;2022-12-20T05:46:08;17.67;;;7.75;;
34497;SDS011;20744;50.938;7.286;2022-12-20T05:48:36;9.90;;;6.60;;
34497;SDS011;20744;50.938;7.286;2022-12-20T05:51:03;12.25;;;7.25;;
34497;SDS011;20744;50.938;7.286;2022-12-20T05:53:30;10.98;;;6.72;;
34497;SDS011;20744;50.938;7.286;2022-12-20T05:55:59;14.05;;;7.07;;
34497;SDS011;20744;50.938;7.286;2022-12-20T05:58:26;13.43;;;7.90;;
34497;SDS011;20744;50.938;7.286;2022-12-20T06:00:54;13.95;;;7.45;;
34497;SDS011;20744;50.938;7.286;2022-12-20T06:03:21;13.30;;;7.70;;
34497;SDS011;20744;50.938;7.286;2022-12-20T06:05:48;11.13;;;6.47;;
34497;SDS011;20744;50.938;7.286;2022-12-20T06:08:15;12.38;;;7.20;;
34497;SDS011;20744;50.938;7.286;2022-12-20T06:10:43;10.63;;;7.18;;
34497;SDS011;20744;50.938;7.286;2022-12-20T06:13:12;15.32;;;7.20;;
34497;SDS011;20744;50.938;7.286;2022-12-20T06:15:39;14.90;;;7.60;;
34497;SDS011;20744;50.938;7.286;2022-12-20T06:18:06;13.43;;;7.65;;
34497;SDS011;20744;50.938;7.286;2022-12-20T06:20:34;11.80;;;6.97;;
34497;SDS011;20744;50.938;7.286;2022-12-20T06:23:01;15.18;;;7.65;;
34497;SDS011;20744;50.938;7.286;2022-12-20T06:25:28;15.98;;;8.52;;
34497;SDS011;20744;50.938;7.286;2022-12-20T06:27:56;12.13;;;7.10;;
34497;SDS011;20744;50.938;7.286;2022-12-20T06:30:25;10.98;;;7.40;;
34497;SDS011;20744;50.938;7.286;2022-12-20T06:32:52;14.07;;;7.78;;
34497;SDS011;20744;50.938;7.286;2022-12-20T06:35:19;11.13;;;7.40;;
34497;SDS011;20744;50.938;7.286;2022-12-20T06:37:46;14.50;;;7.45;;
34497;SDS011;20744;50.938;7.286;2022-12-20T06:40:13;11.00;;;7.28;;
34497;SDS011;20744;50.938;7.286;2022-12-20T06:42:41;14.23;;;7.45;;
34497;SDS011;20744;50.938;7.286;2022-12-20T06:45:08;11.90;;;7.97;;
34497;SDS011;20744;50.938;7.286;2022-12-20T06:47:37;14.10;;;7.90;;
34497;SDS011;20744;50.938;7.286;2022-12-20T06:50:05;12.35;;;7.13;;
34497;SDS011;20744;50.938;7.286;2022-12-20T06:52:32;14.80;;;7.55;;
34497;SDS011;20744;50.938;7.286;2022-12-20T06:55:00;14.07;;;7.13;;
34497;SDS011;20744;50.938;7.286;2022-12-20T06:57:27;12.10;;;7.40;;
34497;SDS011;20744;50.938;7.286;2022-12-20T06:59:54;13.43;;;7.28;;
34497;SDS011;20744;50.938;7.286;2022-12-20T07:02:21;12.18;;;7.63;;
34497;SDS011;20744;50.938;7.286;2022-12-20T07:04:50;15.48;;;7.00;;
34497;SDS011;20744;50.938;7.286;2022-12-20T07:07:17;10.65;;;7.25;;
34497;SDS011;20744;50.938;7.286;2022-12-20T07:09:45;12.80;;;6.90;;
34497;SDS011;20744;50.938;7.286;2022-12-20T07:12:12;12.48;;;6.85;;
34497;SDS011;20744;50.938;7.286;2022-12-20T07:14:39;13.13;;;7.03;;
34497;SDS011;20744;50.938;7.286;2022-12-20T07:17:06;12.13;;;7.25;;
34497;SDS011;20744;50.938;7.286;2022-12-20T07:19:34;11.85;;;6.80;;
34497;SDS011;20744;50.938;7.286;2022-12-20T07:22:03;9.90;;;6.00;;
34497;SDS011;20744;50.938;7.286;2022-12-20T07:24:30;14.85;;;6.68;;
34497;SDS011;20744;50.938;7.286;2022-12-20T07:26:57;10.68;;;6.07;;
34497;SDS011;20744;50.938;7.286;2022-12-20T07:29:25;11.20;;;6.55;;
34497;SDS011;20744;50.938;7.286;2022-12-20T07:31:52;9.60;;;6.25;;
34497;SDS011;20744;50.938;7.286;2022-12-20T07:34:19;10.13;;;5.57;;
34497;SDS011;20744;50.938;7.286;2022-12-20T07:36:47;13.30;;;6.60;;
34497;SDS011;20744;50.938;7.286;2022-12-20T07:39:15;11.43;;;6.18;;
34497;SDS011;20744;50.938;7.286;2022-12-20T07:41:43;11.95;;;5.68;;
34497;SDS011;20744;50.938;7.286;2022-12-20T07:44:11;8.70;;;5.90;;
34497;SDS011;20744;50.938;7.286;2022-12-20T07:46:38;12.77;;;6.10;;
34497;SDS011;20744;50.938;7.286;2022-12-20T07:49:05;11.30;;;5.75;;
34497;SDS011;20744;50.938;7.286;2022-12-20T07:51:33;10.05;;;5.90;;
34497;SDS011;20744;50.938;7.286;2022-12-20T07:54:01;11.15;;;6.72;;
34497;SDS011;20744;50.938;7.286;2022-12-20T07:56:32;9.00;;;6.05;;
34497;SDS011;20744;50.938;7.286;2022-12-20T07:59:00;12.10;;;6.10;;
34497;SDS011;20744;50.938;7.286;2022-12-20T08:01:27;13.13;;;6.38;;
34497;SDS011;20744;50.938;7.286;2022-12-20T08:03:56;11.15;;;5.78;;
34497;SDS011;20744;50.938;7.286;2022-12-20T08:06:24;11.00;;;6.20;;
34497;SDS011;20744;50.938;7.286;2022-12-20T08:08:53;10.38;;;6.88;;
34497;SDS011;20744;50.938;7.286;2022-12-20T08:11:22;10.88;;;6.78;;
34497;SDS011;20744;50.938;7.286;2022-12-20T08:13:51;12.90;;;7.00;;
34497;SDS011;20744;50.938;7.286;2022-12-20T08:16:18;15.32;;;7.10;;
34497;SDS011;20744;50.938;7.286;2022-12-20T08:18:45;11.63;;;7.00;;
34497;SDS011;20744;50.938;7.286;2022-12-20T08:21:12;14.32;;;7.45;;
34497;SDS011;20744;50.938;7.286;2022-12-20T08:23:40;10.48;;;7.05;;
34497;SDS011;20744;50.938;7.286;2022-12-20T08:26:07;10.40;;;6.93;;
34497;SDS011;20744;50.938;7.286;2022-12-20T08:28:34;12.73;;;7.28;;
34497;SDS011;20744;50.938;7.286;2022-12-20T08:31:03;15.25;;;6.65;;
34497;SDS011;20744;50.938;7.286;2022-12-20T08:33:31;11.43;;;6.38;;
34497;SDS011;20744;50.938;7.286;2022-12-20T08:35:59;10.30;;;5.80;;
34497;SDS011;20744;50.938;7.286;2022-12-20T08:38:27;10.70;;;6.28;;
34497;SDS011;20744;50.938;7.286;2022-12-20T08:40:55;9.23;;;6.40;;
34497;SDS011;20744;50.938;7.286;2022-12-20T08:43:22;9.88;;;5.72;;
34497;SDS011;20744;50.938;7.286;2022-12-20T08:45:52;13.77;;;6.25;;
34497;SDS011;20744;50.938;7.286;2022-12-20T08:48:21;9.02;;;6.00;;
34497;SDS011;20744;50.938;7.286;2022-12-20T08:50:52;9.10;;;6.15;;
34497;SDS011;20744;50.938;7.286;2022-12-20T08:53:19;9.95;;;5.55;;
34497;SDS011;20744;50.938;7.286;2022-12-20T08:55:47;8.70;;;5.10;;
34497;SDS011;20744;50.938;7.286;2022-12-20T08:58:14;9.80;;;5.43;;
34497;SDS011;20744;50.938;7.286;2022-12-20T09:00:41;9.30;;;5.25;;
34497;SDS011;20744;50.938;7.286;2022-12-20T09:03:08;10.50;;;5.78;;
34497;SDS011;20744;50.938;7.286;2022-12-20T09:05:43;9.30;;;5.85;;
34497;SDS011;20744;50.938;7.286;2022-12-20T09:08:11;9.27;;;4.97;;
34497;SDS011;20744;50.938;7.286;2022-12-20T09:10:38;8.95;;;5.07;;
34497;SDS011;20744;50.938;7.286;2022-12-20T09:13:05;9.77;;;5.97;;
34497;SDS011;20744;50.938;7.286;2022-12-20T09:15:33;9.43;;;5.00;;
34497;SDS011;20744;50.938;7.286;2022-12-20T09:18:00;11.88;;;5.13;;
34497;SDS011;20744;50.938;7.286;2022-12-20T09:20:27;7.50;;;4.45;;
34497;SDS011;20744;50.938;7.286;2022-12-20T09:22:56;8.20;;;4.57;;
34497;SDS011;20744;50.938;7.286;2022-12-20T09:25:23;8.05;;;4.20;;
34497;SDS011;20744;50.938;7.286;2022-12-20T09:27:51;7.93;;;4.47;;
34497;SDS011;20744;50.938;7.286;2022-12-20T09:30:19;8.32;;;4.28;;
34497;SDS011;20744;50.938;7.286;2022-12-20T09:32:46;7.80;;;4.13;;
34497;SDS011;20744;50.938;7.286;2022-12-20T09:35:13;11.18;;;4.10;;
34497;SDS011;20744;50.938;7.286;2022-12-20T09:37:41;11.00;;;3.95;;
34497;SDS011;20744;50.938;7.286;2022-12-20T09:40:13;7.28;;;4.13;;
34497;SDS011;20744;50.938;7.286;2022-12-20T09:42:42;7.70;;;3.90;;
34497;SDS011;20744;50.938;7.286;2022-12-20T09:45:10;6.88;;;4.30;;
34497;SDS011;20744;50.938;7.286;2022-12-20T09:47:43;10.20;;;4.30;;
34497;SDS011;20744;50.938;7.286;2022-12-20T09:50:13;10.05;;;4.68;;
34497;SDS011;20744;50.938;7.286;2022-12-20T09:52:45;8.63;;;4.78;;
34497;SDS011;20744;50.938;7.286;2022-12-20T09:55:16;6.80;;;4.55;;
34497;SDS011;20744;50.938;7.286;2022-12-20T09:57:50;7.53;;;4.78;;
34497;SDS011;20744;50.938;7.286;2022-12-20T10:00:20;8.00;;;4.88;;
34497;SDS011;20744;50.938;7.286;2022-12-20T10:02:48;11.02;;;4.97;;
34497;SDS011;20744;50.938;7.286;2022-12-20T10:05:17;7.45;;;4.80;;
34497;SDS011;20744;50.938;7.286;2022-12-20T10:07:48;11.18;;;5.40;;
34497;SDS011;20744;50.938;7.286;2022-12-20T10:10:28;10.52;;;6.25;;
34497;SDS011;20744;50.938;7.286;2022-12-20T10:13:00;9.93;;;4.90;;
34497;SDS011;20744;50.938;7.286;2022-12-20T10:15:30;13.73;;;5.80;;
34497;SDS011;20744;50.938;7.286;2022-12-20T10:18:09;11.77;;;5.53;;
34497;SDS011;20744;50.938;7.286;2022-12-20T10:20:45;11.07;;;5.88;;
34497;SDS011;20744;50.938;7.286;2022-12-20T10:23:18;8.85;;;6.38;;
34497;SDS011;20744;50.938;7.286;2022-12-20T10:25:50;7.20;;;5.65;;
34497;SDS011;20744;50.938;7.286;2022-12-20T10:28:19;12.18;;;6.00;;
34497;SDS011;20744;50.938;7.286;2022-12-20T10:30:49;12.50;;;6.00;;
34497;SDS011;20744;50.938;7.286;2022-12-20T10:33:18;8.90;;;5.55;;
34497;SDS011;20744;50.938;7.286;2022-12-20T10:35:46;11.48;;;5.93;;
34497;SDS011;20744;50.938;7.286;2022-12-20T10:38:14;10.48;;;5.32;;
34497;SDS011;20744;50.938;7.286;2022-12-20T10:40:43;11.95;;;5.68;;
34497;SDS011;20744;50.938;7.286;2022-12-20T10:43:13;9.85;;;6.22;;
34497;SDS011;20744;50.938;7.286;2022-12-20T10:45:43;11.18;;;6.22;;
34497;SDS011;20744;50.938;7.286;2022-12-20T10:50:54;13.85;;;6.65;;
34497;SDS011;20744;50.938;7.286;2022-12-20T10:53:22;12.48;;;6.88;;
34497;SDS011;20744;50.938;7.286;2022-12-20T10:55:51;9.90;;;6.13;;
34497;SDS011;20744;50.938;7.286;2022-12-20T10:58:30;11.30;;;6.35;;
34497;SDS011;20744;50.938;7.286;2022-12-20T11:01:12;14.70;;;6.68;;
34497;SDS011;20744;50.938;7.286;2022-12-20T11:03:51;13.07;;;6.28;;
34497;SDS011;20744;50.938;7.286;2022-12-20T11:06:20;9.35;;;5.90;;
34497;SDS011;20744;50.938;7.286;2022-12-20T11:08:47;8.07;;;5.85;;
34497;SDS011;20744;50.938;7.286;2022-12-20T11:11:15;10.65;;;6.20;;
34497;SDS011;20744;50.938;7.286;2022-12-20T11:13:43;12.43;;;6.13;;
34497;SDS011;20744;50.938;7.286;2022-12-20T11:19:01;9.00;;;6.03;;
34497;SDS011;20744;50.938;7.286;2022-12-20T11:21:32;12.70;;;6.28;;
34497;SDS011;20744;50.938;7.286;2022-12-20T11:24:05;12.18;;;6.80;;
34497;SDS011;20744;50.938;7.286;2022-12-20T11:26:37;12.98;;;6.97;;
34497;SDS011;20744;50.938;7.286;2022-12-20T11:29:12;9.95;;;5.75;;
34497;SDS011;20744;50.938;7.286;2022-12-20T11:31:45;15.10;;;5.78;;
34497;SDS011;20744;50.938;7.286;2022-12-20T11:34:19;9.02;;;5.20;;
34497;SDS011;20744;50.938;7.286;2022-12-20T11:36:56;9.40;;;5.03;;
34497;SDS011;20744;50.938;7.286;2022-12-20T11:39:29;16.40;;;4.90;;
34497;SDS011;20744;50.938;7.286;2022-12-20T11:41:58;7.60;;;4.97;;
34497;SDS011;20744;50.938;7.286;2022-12-20T11:44:31;8.80;;;5.53;;
34497;SDS011;20744;50.938;7.286;2022-12-20T11:47:04;8.65;;;5.25;;
34497;SDS011;20744;50.938;7.286;2022-12-20T11:49:48;11.55;;;5.50;;
34497;SDS011;20744;50.938;7.286;2022-12-20T11:54:46;9.75;;;5.15;;
34497;SDS011;20744;50.938;7.286;2022-12-20T11:57:15;8.98;;;4.97;;
34497;SDS011;20744;50.938;7.286;2022-12-20T11:59:44;10.43;;;5.18;;
34497;SDS011;20744;50.938;7.286;2022-12-20T12:02:13;8.95;;;5.15;;
34497;SDS011;20744;50.938;7.286;2022-12-20T12:04:41;8.38;;;5.28;;
34497;SDS011;20744;50.938;7.286;2022-12-20T12:07:12;12.63;;;5.30;;
34497;SDS011;20744;50.938;7.286;2022-12-20T12:09:43;8.27;;;5.15;;
34497;SDS011;20744;50.938;7.286;2022-12-20T12:12:13;10.77;;;4.82;;
34497;SDS011;20744;50.938;7.286;2022-12-20T12:14:43;9.18;;;5.30;;
34497;SDS011;20744;50.938;7.286;2022-12-20T12:17:12;9.68;;;4.45;;
34497;SDS011;20744;50.938;7.286;2022-12-20T12:19:43;9.40;;;4.90;;
34497;SDS011;20744;50.938;7.286;2022-12-20T12:22:15;10.25;;;5.40;;
34497;SDS011;20744;50.938;7.286;2022-12-20T12:24:45;6.38;;;4.65;;
34497;SDS011;20744;50.938;7.286;2022-12-20T12:27:18;9.80;;;4.55;;
34497;SDS011;20744;50.938;7.286;2022-12-20T12:29:47;7.15;;;4.85;;
34497;SDS011;20744;50.938;7.286;2022-12-20T12:32:16;9.88;;;4.25;;
34497;SDS011;20744;50.938;7.286;2022-12-20T12:34:49;8.48;;;4.45;;
34497;SDS011;20744;50.938;7.286;2022-12-20T12:40:24;10.07;;;5.00;;
34497;SDS011;20744;50.938;7.286;2022-12-20T12:45:40;9.68;;;4.45;;
34497;SDS011;20744;50.938;7.286;2022-12-20T12:48:11;7.30;;;4.25;;
34497;SDS011;20744;50.938;7.286;2022-12-20T12:50:41;14.20;;;4.40;;
34497;SDS011;20744;50.938;7.286;2022-12-20T12:53:11;11.90;;;4.45;;
34497;SDS011;20744;50.938;7.286;2022-12-20T12:55:44;10.23;;;4.95;;
34497;SDS011;20744;50.938;7.286;2022-12-20T12:58:13;9.10;;;3.95;;
34497;SDS011;20744;50.938;7.286;2022-12-20T13:00:47;6.22;;;3.83;;
34497;SDS011;20744;50.938;7.286;2022-12-20T13:03:15;8.63;;;3.70;;
34497;SDS011;20744;50.938;7.286;2022-12-20T13:05:43;6.65;;;3.35;;
34497;SDS011;20744;50.938;7.286;2022-12-20T13:08:14;8.27;;;3.60;;
34497;SDS011;20744;50.938;7.286;2022-12-20T13:13:31;8.00;;;3.92;;
34497;SDS011;20744;50.938;7.286;2022-12-20T13:19:03;5.53;;;3.20;;
34497;SDS011;20744;50.938;7.286;2022-12-20T13:21:37;6.18;;;3.28;;
34497;SDS011;20744;50.938;7.286;2022-12-20T13:35:45;6.95;;;3.20;;
34497;SDS011;20744;50.938;7.286;2022-12-20T13:40:59;5.47;;;2.78;;
34497;SDS011;20744;50.938;7.286;2022-12-20T13:43:27;5.45;;;2.95;;
34497;SDS011;20744;50.938;7.286;2022-12-20T13:45:56;5.45;;;3.30;;
34497;SDS011;20744;50.938;7.286;2022-12-20T13:48:25;6.05;;;3.30;;
34497;SDS011;20744;50.938;7.286;2022-12-20T13:50:55;9.07;;;4.18;;
34497;SDS011;20744;50.938;7.286;2022-12-20T13:53:23;8.05;;;3.40;;
34497;SDS011;20744;50.938;7.286;2022-12-20T13:55:52;6.35;;;3.15;;
34497;SDS011;20744;50.938;7.286;2022-12-20T13:58:20;5.55;;;3.08;;
34497;SDS011;20744;50.938;7.286;2022-12-20T14:00:48;7.22;;;3.97;;
34497;SDS011;20744;50.938;7.286;2022-12-20T14:03:20;7.00;;;3.45;;
34497;SDS011;20744;50.938;7.286;2022-12-20T14:05:48;8.82;;;3.60;;
34497;SDS011;20744;50.938;7.286;2022-12-20T14:08:17;5.20;;;3.75;;
34497;SDS011;20744;50.938;7.286;2022-12-20T14:10:46;5.95;;;3.28;;
34497;SDS011;20744;50.938;7.286;2022-12-20T14:13:19;14.05;;;3.95;;
34497;SDS011;20744;50.938;7.286;2022-12-20T14:15:46;5.55;;;3.30;;
34497;SDS011;20744;50.938;7.286;2022-12-20T14:18:15;7.45;;;3.92;;
34497;SDS011;20744;50.938;7.286;2022-12-20T14:20:43;9.32;;;3.40;;
34497;SDS011;20744;50.938;7.286;2022-12-20T14:23:11;7.97;;;4.00;;
34497;SDS011;20744;50.938;7.286;2022-12-20T14:25:43;7.13;;;4.00;;
34497;SDS011;20744;50.938;7.286;2022-12-20T14:28:16;10.25;;;6.00;;
34497;SDS011;20744;50.938;7.286;2022-12-20T14:30:44;7.18;;;4.60;;
34497;SDS011;20744;50.938;7.286;2022-12-20T14:33:21;7.45;;;3.97;;
34497;SDS011;20744;50.938;7.286;2022-12-20T14:35:50;8.02;;;3.28;;
34497;SDS011;20744;50.938;7.286;2022-12-20T14:38:21;8.40;;;4.40;;
34497;SDS011;20744;50.938;7.286;2022-12-20T14:40:51;7.35;;;3.83;;
34497;SDS011;20744;50.938;7.286;2022-12-20T14:43:23;7.80;;;4.32;;
34497;SDS011;20744;50.938;7.286;2022-12-20T14:46:05;9.15;;;3.70;;
34497;SDS011;20744;50.938;7.286;2022-12-20T14:48:32;7.43;;;3.40;;
34497;SDS011;20744;50.938;7.286;2022-12-20T14:51:03;8.75;;;4.20;;
34497;SDS011;20744;50.938;7.286;2022-12-20T14:53:31;9.85;;;4.60;;
34497;SDS011;20744;50.938;7.286;2022-12-20T14:55:59;9.77;;;5.40;;
34497;SDS011;20744;50.938;7.286;2022-12-20T14:58:28;10.10;;;4.50;;
34497;SDS011;20744;50.938;7.286;2022-12-20T15:00:56;9.35;;;4.70;;
34497;SDS011;20744;50.938;7.286;2022-12-20T15:03:24;8.93;;;4.95;;
34497;SDS011;20744;50.938;7.286;2022-12-20T15:05:51;8.73;;;4.70;;
34497;SDS011;20744;50.938;7.286;2022-12-20T15:08:21;8.30;;;4.75;;
34497;SDS011;20744;50.938;7.286;2022-12-20T15:10:51;7.88;;;4.57;;
34497;SDS011;20744;50.938;7.286;2022-12-20T15:13:21;9.75;;;4.38;;
34497;SDS011;20744;50.938;7.286;2022-12-20T15:15:48;6.35;;;4.22;;
34497;SDS011;20744;50.938;7.286;2022-12-20T15:18:16;9.73;;;4.55;;
34497;SDS011;20744;50.938;7.286;2022-12-20T15:20:44;9.30;;;4.05;;
34497;SDS011;20744;50.938;7.286;2022-12-20T15:23:13;10.43;;;4.20;;
34497;SDS011;20744;50.938;7.286;2022-12-20T15:25:40;10.23;;;4.55;;
34497;SDS011;20744;50.938;7.286;2022-12-20T15:28:12;12.13;;;4.43;;